createdAt,value
2019-04-01T00:00:27.699Z,30.80
2019-04-01T00:03:40.683Z,34.64
2019-04-01T00:06:45.965Z,33.55
2019-04-01T00:09:58.990Z,33.52
2019-04-01T00:13:06.234Z,31.28
2019-04-01T00:16:12.578Z,31.87
2019-04-01T00:23:09.956Z,33.09
2019-04-01T00:26:16.102Z,31.39
2019-04-01T00:29:30.810Z,32.35
2019-04-01T00:32:41.282Z,32.55
2019-04-01T00:35:52.428Z,35.57
2019-04-01T00:38:57.695Z,31.74
2019-04-01T00:42:16.398Z,31.06
2019-04-01T00:45:41.795Z,33.99
2019-04-01T00:48:45.315Z,34.54
2019-04-01T00:51:54.205Z,32.88
2019-04-01T00:55:00.460Z,31.45
2019-04-01T00:58:13.458Z,32.69
2019-04-01T01:01:18.734Z,35.53
2019-04-01T01:05:22.821Z,35.04
2019-04-01T01:08:24.313Z,31.60
2019-04-01T01:17:21.626Z,32.95
2019-04-01T01:20:39.521Z,33.29
2019-04-01T01:23:48.321Z,28.87
2019-04-01T01:26:59.278Z,28.21
2019-04-01T01:30:06.483Z,33.79
2019-04-01T01:33:18.620Z,35.25
2019-04-01T01:36:25.734Z,35.95
2019-04-01T01:39:37.934Z,33.60
2019-04-01T01:46:32.635Z,33.99
2019-04-01T01:49:38.594Z,32.69
2019-04-01T01:52:43.311Z,33.34
2019-04-01T01:55:56.106Z,32.83
2019-04-01T01:59:07.199Z,31.65
2019-04-01T02:02:18.364Z,30.48
2019-04-01T02:05:29.650Z,33.49
2019-04-01T02:08:40.764Z,31.94
2019-04-01T02:11:46.054Z,34.55
2019-04-01T02:14:56.359Z,31.75
2019-04-01T02:18:06.094Z,32.78
2019-04-01T02:21:11.630Z,30.19
2019-04-01T02:24:20.635Z,34.41
2019-04-01T02:27:26.969Z,35.96
2019-04-01T02:34:28.058Z,34.80
2019-04-01T02:40:58.336Z,36.89
2019-04-01T02:44:15.035Z,37.13
2019-04-01T02:47:19.425Z,35.78
2019-04-01T02:50:33.647Z,36.96
2019-04-01T02:53:46.396Z,39.26
2019-04-01T02:56:53.095Z,37.81
2019-04-01T03:00:05.559Z,34.53
2019-04-01T03:03:16.571Z,40.46
2019-04-01T03:06:21.824Z,37.66
2019-04-01T03:09:30.680Z,34.65
2019-04-01T03:12:43.043Z,34.29
2019-04-01T03:15:54.283Z,34.96
2019-04-01T03:19:01.365Z,34.03
2019-04-01T03:22:13.674Z,34.29
2019-04-01T03:25:19.074Z,32.15
2019-04-01T03:28:29.956Z,34.00
2019-04-01T04:37:05.396Z,36.61
2019-04-01T04:40:07.468Z,35.89
2019-04-01T04:43:13.763Z,33.50
2019-04-01T04:46:23.286Z,33.61
2019-04-01T04:49:29.035Z,35.81
2019-04-01T04:52:35.872Z,33.00
2019-04-01T04:55:42.746Z,32.87
2019-04-01T04:58:51.695Z,34.40
2019-04-01T05:01:58.219Z,33.35
2019-04-01T05:05:05.691Z,36.16
2019-04-01T05:08:12.404Z,35.35
2019-04-01T05:11:19.395Z,37.80
2019-04-01T05:14:26.414Z,34.44
2019-04-01T05:17:33.379Z,33.55
2019-04-01T05:20:40.433Z,35.34
2019-04-01T05:35:40.935Z,33.95
2019-04-01T06:17:51.618Z,26.89
2019-04-01T06:20:54.019Z,26.15
2019-04-01T07:03:18.463Z,22.55
2019-04-01T07:06:26.122Z,22.32
2019-04-01T07:09:30.958Z,21.29
2019-04-01T07:12:37.806Z,16.50
2019-04-01T07:15:44.891Z,20.19
2019-04-01T07:58:03.058Z,13.05
2019-04-01T08:01:05.470Z,12.10
2019-04-01T08:04:12.266Z,12.90
2019-04-01T08:07:19.107Z,10.91
2019-04-01T08:10:26.223Z,10.61
2019-04-01T08:13:35.319Z,8.36
2019-04-01T08:16:41.786Z,11.86
2019-04-01T08:46:06.419Z,12.54
2019-04-01T08:49:10.006Z,11.74
2019-04-01T08:52:15.755Z,12.03
2019-04-01T08:55:24.571Z,13.69
2019-04-01T08:58:31.067Z,12.77
2019-04-01T09:01:38.291Z,12.31
2019-04-01T09:04:45.495Z,12.54
2019-04-01T09:07:54.856Z,12.80
2019-04-01T09:11:01.311Z,12.32
2019-04-01T09:53:19.675Z,13.39
2019-04-01T09:56:22.323Z,13.96
2019-04-01T09:59:28.967Z,13.84
2019-04-01T10:02:35.995Z,15.16
2019-04-01T10:06:41.991Z,14.96
2019-04-01T10:09:52.723Z,14.90
2019-04-01T10:12:57.393Z,14.59
2019-04-01T10:16:11.640Z,14.45
2019-04-01T10:21:12.508Z,15.90
2019-04-01T10:24:20.790Z,14.76
2019-04-01T10:27:25.523Z,13.39
2019-04-01T10:30:32.606Z,14.12
2019-04-01T10:33:39.783Z,15.54
2019-04-01T10:38:46.513Z,14.55
2019-04-01T10:41:48.023Z,16.20
2019-04-01T10:44:54.935Z,15.20
2019-04-01T10:48:02.049Z,15.73
2019-04-01T10:51:28.350Z,15.42
2019-04-01T10:54:43.196Z,16.46
2019-04-01T10:57:55.752Z,16.32
2019-04-01T11:01:00.872Z,12.04
2019-04-01T11:04:08.092Z,17.99
2019-04-01T11:07:19.628Z,16.85
2019-04-01T11:10:32.794Z,15.69
2019-04-01T11:13:37.946Z,17.29
2019-04-01T11:17:44.998Z,17.51
2019-04-01T11:20:46.865Z,18.25
2019-04-01T11:23:54.064Z,16.90
2019-04-01T11:27:08.734Z,15.39
2019-04-01T11:30:28.119Z,16.37
2019-04-01T11:33:36.319Z,15.71
2019-04-01T11:36:49.518Z,17.40
2019-04-01T11:39:54.702Z,14.86
2019-04-01T11:43:09.267Z,16.07
2019-04-01T11:46:15.073Z,17.49
2019-04-01T11:49:22.312Z,16.58
2019-04-01T12:02:34.954Z,16.37
2019-04-01T12:09:24.697Z,18.95
2019-04-01T12:16:14.189Z,17.85
2019-04-01T12:19:18.010Z,16.40
2019-04-01T12:28:16.182Z,16.10
2019-04-01T12:33:20.454Z,17.52
2019-04-01T12:39:43.856Z,16.56
2019-04-01T12:43:23.302Z,14.75
2019-04-01T12:46:26.294Z,15.45
2019-04-01T12:49:40.510Z,14.79
2019-04-01T12:53:14.010Z,15.00
2019-04-01T12:56:16.557Z,14.80
2019-04-01T12:59:24.606Z,16.55
2019-04-01T13:02:31.703Z,15.58
2019-04-01T13:06:37.138Z,15.24
2019-04-01T13:09:38.913Z,15.06
2019-04-01T13:13:50.946Z,14.30
2019-04-01T13:16:54.758Z,14.56
2019-04-01T13:20:00.962Z,15.09
2019-04-01T13:25:07.796Z,14.20
2019-04-01T13:28:12.762Z,13.84
2019-04-01T13:31:22.210Z,13.13
2019-04-01T13:34:28.032Z,14.34
2019-04-01T13:37:47.921Z,14.31
2019-04-01T13:40:52.342Z,15.08
2019-04-01T13:43:59.478Z,13.09
2019-04-01T13:47:22.478Z,14.57
2019-04-01T13:50:26.306Z,12.91
2019-04-01T13:53:40.804Z,13.96
2019-04-01T13:56:53.007Z,12.75
2019-04-01T14:00:02.207Z,15.92
2019-04-01T14:03:11.072Z,14.80
2019-04-01T14:06:17.602Z,14.17
2019-04-01T14:09:24.803Z,14.60
2019-04-01T14:12:32.158Z,14.23
2019-04-01T14:15:39.418Z,14.97
2019-04-01T14:18:53.966Z,15.01
2019-04-01T14:21:59.094Z,14.74
2019-04-01T14:25:20.814Z,14.27
2019-04-01T14:28:28.271Z,15.22
2019-04-01T14:31:34.666Z,12.79
2019-04-01T14:38:36.391Z,15.33
2019-04-01T14:41:38.956Z,14.14
2019-04-01T14:44:58.124Z,15.09
2019-04-01T14:48:10.871Z,13.52
2019-04-01T14:51:15.645Z,12.97
2019-04-01T14:54:30.290Z,13.29
2019-04-01T14:57:35.454Z,14.54
2019-04-01T15:00:42.607Z,14.22
2019-04-01T15:03:56.775Z,15.26
2019-04-01T15:08:57.194Z,12.85
2019-04-01T15:12:26.477Z,13.99
2019-04-01T15:15:28.878Z,13.74
2019-04-01T15:18:43.100Z,17.29
2019-04-01T15:21:49.584Z,13.76
2019-04-01T15:24:56.085Z,16.04
2019-04-01T15:28:04.366Z,13.29
2019-04-01T15:33:09.118Z,12.78
2019-04-01T15:36:10.082Z,13.90
2019-04-01T15:39:20.794Z,14.60
2019-04-01T15:42:26.682Z,14.15
2019-04-01T15:45:35.273Z,13.62
2019-04-01T15:50:39.458Z,13.56
2019-04-01T15:57:08.248Z,15.11
2019-04-01T16:00:20.110Z,14.59
2019-04-01T16:03:27.650Z,12.77
2019-04-01T16:06:38.176Z,13.50
2019-04-01T16:09:44.005Z,13.49
2019-04-01T16:18:41.274Z,11.33
2019-04-01T16:29:32.376Z,13.49
2019-04-01T16:36:21.955Z,15.31
2019-04-01T16:39:36.350Z,13.93
2019-04-01T16:46:30.210Z,13.20
2019-04-01T16:51:14.911Z,11.07
2019-04-01T16:58:06.608Z,14.16
2019-04-01T17:01:07.111Z,15.00
2019-04-01T17:37:00.958Z,15.27
2019-04-01T17:40:09.528Z,15.94
2019-04-01T17:43:17.424Z,15.31
2019-04-01T17:46:26.307Z,15.64
2019-04-01T18:15:46.534Z,14.71
2019-04-01T18:18:49.175Z,14.19
2019-04-01T18:21:55.562Z,14.50
2019-04-01T19:04:14.127Z,14.36
2019-04-01T19:46:29.994Z,14.92
2019-04-01T20:15:47.097Z,17.14
2019-04-01T20:18:49.190Z,17.35
2019-04-01T20:41:41.899Z,14.63
2019-04-01T20:44:46.301Z,15.39
2019-04-01T20:47:52.505Z,13.23
2019-04-01T20:51:03.126Z,14.84
2019-04-01T20:54:15.178Z,14.07
2019-04-01T20:57:29.131Z,14.45
2019-04-01T21:00:34.182Z,13.49
2019-04-01T21:42:53.414Z,11.06
2019-04-01T21:45:55.624Z,10.95
2019-04-01T22:15:15.550Z,9.88
2019-04-01T22:18:27.913Z,10.78
2019-04-01T22:21:36.688Z,9.60
2019-04-01T22:26:36.602Z,9.54
2019-04-01T22:29:37.303Z,9.74
2019-04-01T22:32:48.005Z,9.87
2019-04-01T22:43:44.602Z,11.45
2019-04-01T22:46:49.882Z,10.01
2019-04-01T22:50:05.737Z,9.30
2019-04-01T22:53:17.970Z,10.11
2019-04-01T23:00:11.885Z,9.56
2019-04-01T23:03:13.338Z,11.12
2019-04-01T23:08:15.068Z,10.28
2019-04-01T23:11:15.734Z,9.44
2019-04-01T23:20:13.963Z,9.54
2019-04-01T23:23:13.710Z,9.16
2019-04-01T23:26:20.067Z,10.19
2019-04-01T23:29:27.510Z,9.71
2019-04-01T23:36:24.650Z,9.56
2019-04-01T23:39:28.785Z,9.41
2019-04-01T23:46:24.713Z,10.05
2019-04-01T23:49:24.586Z,9.45
2019-04-01T23:52:33.212Z,9.58
2019-04-01T23:55:39.918Z,10.20
2019-04-01T23:58:46.802Z,9.77
